Terminal Aerodrome Forecast
Issued by NWS Louisville, KY

Home | Current Version | Previous Version | Text Only | Print | Product List | Glossary On
Versions: 1 2 3 4 5 6 7 8 9 10 11 12 13 14 15 16 17 18 19 20 21 22 23 24 25 26
000
FTUS43 KLMK 162227 AAA
TAFLEX
TAF AMD
KLEX 162227Z 1622/1718 15005KT P6SM VCSH SCT045 BKN090
      TEMPO 1705/1707 4SM -SHRA BR BKN025
     FM170700 18010KT 3SM -SHRA BR OVC015 WS020/20050KT
     FM170900 19012KT 3SM -SHRA BR OVC008 WS020/20050KT
     FM171400 20013G20KT P6SM VCSH OVC008
     FM171600 21014G21KT P6SM OVC018=

USA.gov is the U.S. government's official web portal to all federal, state and local government web resources and services.